createdAt,value
2023-06-19T03:52:34.925Z,7.12
2023-06-19T03:55:38.264Z,6.40
2023-06-19T03:58:40.678Z,6.13
2023-06-19T04:01:44.531Z,6.68
2023-06-19T04:04:47.177Z,6.47
2023-06-19T04:07:50.772Z,7.30
2023-06-19T04:10:53.845Z,6.18
2023-06-19T04:13:56.334Z,5.95
2023-06-19T04:16:58.948Z,5.97
2023-06-19T04:20:11.740Z,6.12
2023-06-19T04:23:14.849Z,5.97
2023-06-19T04:26:18.738Z,5.90
2023-06-19T04:29:21.683Z,6.50
2023-06-19T04:32:24.103Z,6.27
2023-06-19T04:35:27.289Z,5.95
2023-06-19T04:38:30.052Z,5.90
2023-06-19T04:41:35.028Z,5.55
2023-06-19T04:44:37.532Z,4.90
2023-06-19T04:47:52.737Z,5.37
2023-06-19T04:50:57.302Z,6.60
2023-06-19T04:54:01.020Z,5.93
2023-06-19T05:00:15.661Z,5.40
2023-06-19T05:03:19.107Z,6.28
2023-06-19T05:06:25.521Z,5.85
2023-06-19T05:09:28.065Z,5.82
2023-06-19T05:12:30.753Z,6.40
2023-06-19T05:15:33.369Z,6.30
2023-06-19T05:18:36.123Z,6.95
2023-06-19T05:21:38.617Z,5.63
2023-06-19T05:24:41.874Z,6.12
2023-06-19T05:27:44.426Z,6.37
2023-06-19T05:30:47.200Z,6.90
2023-06-19T05:33:50.963Z,6.87
2023-06-19T05:36:53.777Z,5.53
2023-06-19T05:39:56.249Z,5.28
2023-06-19T05:42:59.141Z,6.78
2023-06-19T05:46:03.391Z,4.93
2023-06-19T05:49:06.307Z,5.75
2023-06-19T05:52:09.186Z,5.00
2023-06-19T05:55:14.498Z,5.68
2023-06-19T05:58:20.889Z,5.55
2023-06-19T06:01:25.861Z,5.85
2023-06-19T06:04:29.024Z,5.53
2023-06-19T06:07:32.279Z,5.93
2023-06-19T06:10:36.124Z,4.97
2023-06-19T06:13:38.634Z,5.57
2023-06-19T06:16:41.437Z,5.53
2023-06-19T06:19:44.083Z,5.28
2023-06-19T06:22:46.910Z,5.93
2023-06-19T06:25:49.549Z,5.97
2023-06-19T06:32:04.738Z,6.95
2023-06-19T06:35:07.877Z,6.57
2023-06-19T06:38:10.670Z,5.68
2023-06-19T06:41:13.419Z,7.65
2023-06-19T06:44:15.845Z,6.47
2023-06-19T06:47:18.568Z,8.93
2023-06-19T06:50:21.332Z,7.60
2023-06-19T06:53:24.458Z,6.15
2023-06-19T06:56:27.367Z,5.72
2023-06-19T06:59:30.194Z,5.45
2023-06-19T07:02:32.806Z,6.65
2023-06-19T07:08:38.382Z,6.10
2023-06-19T07:11:41.117Z,7.12
2023-06-19T07:14:43.504Z,9.10
2023-06-19T07:17:46.730Z,6.20
2023-06-19T07:20:49.308Z,5.65
2023-06-19T07:23:52.061Z,4.93
2023-06-19T07:26:54.498Z,5.68
2023-06-19T07:29:57.391Z,5.60
2023-06-19T07:33:00.014Z,5.57
2023-06-19T07:36:03.924Z,4.87
2023-06-19T07:39:06.425Z,5.43
2023-06-19T07:42:09.504Z,5.07
2023-06-19T07:48:15.133Z,5.62
2023-06-19T07:51:17.615Z,5.97
2023-06-19T07:57:23.734Z,5.55
2023-06-19T08:00:26.873Z,5.70
2023-06-19T08:03:31.285Z,6.18
2023-06-19T08:06:33.783Z,5.53
2023-06-19T08:09:36.855Z,5.87
2023-06-19T08:15:41.882Z,4.97
2023-06-19T08:18:45.563Z,6.47
2023-06-19T08:21:50.494Z,5.10
2023-06-19T08:24:52.910Z,4.90
2023-06-19T08:30:57.780Z,6.62
2023-06-19T08:40:10.379Z,5.78
2023-06-19T08:43:13.018Z,5.00
2023-06-19T08:46:20.567Z,5.70
2023-06-19T08:49:25.611Z,5.82
2023-06-19T08:52:33.112Z,7.87
2023-06-19T08:55:36.615Z,6.57
2023-06-19T08:58:39.526Z,5.60
2023-06-19T09:04:56.535Z,5.62
2023-06-19T09:08:03.589Z,5.18
2023-06-19T09:11:10.005Z,5.15
2023-06-19T09:14:13.550Z,4.90
2023-06-19T09:17:21.664Z,6.55
2023-06-19T09:20:29.288Z,5.05
2023-06-19T09:23:32.247Z,5.15
2023-06-19T09:26:36.597Z,5.35
2023-06-19T09:29:44.856Z,5.50
2023-06-19T09:32:47.512Z,5.12
2023-06-19T09:35:51.840Z,5.15
2023-06-19T09:38:56.988Z,6.20
2023-06-19T09:42:04.765Z,5.30
2023-06-19T09:45:09.109Z,4.90
2023-06-19T09:48:20.587Z,6.15
2023-06-19T09:51:38.077Z,5.28
2023-06-19T09:54:42.301Z,4.90
2023-06-19T09:57:47.372Z,4.57
2023-06-19T10:00:54.735Z,5.35
2023-06-19T10:04:11.947Z,5.72
2023-06-19T10:07:22.995Z,4.28
2023-06-19T10:10:32.146Z,5.15
2023-06-19T10:13:39.932Z,5.45
2023-06-19T10:16:43.323Z,5.55
2023-06-19T10:19:53.350Z,5.07
2023-06-19T10:23:03.576Z,5.15
2023-06-19T10:26:08.346Z,4.78
2023-06-19T10:29:19.187Z,4.65
2023-06-19T10:32:22.780Z,4.62
2023-06-19T10:35:25.971Z,3.75
2023-06-19T10:38:28.868Z,3.75
2023-06-19T10:41:33.072Z,4.90
2023-06-19T10:44:36.336Z,3.87
2023-06-19T10:47:42.191Z,5.90
2023-06-19T10:50:45.375Z,6.28
2023-06-19T10:53:48.517Z,5.20
2023-06-19T10:56:52.433Z,4.45
2023-06-19T10:59:55.150Z,4.90
2023-06-19T11:06:01.577Z,4.78
2023-06-19T11:12:11.469Z,5.20
2023-06-19T11:15:14.756Z,4.62
2023-06-19T11:18:19.690Z,4.55
2023-06-19T11:21:31.842Z,4.45
2023-06-19T11:24:34.777Z,4.95
2023-06-19T11:27:40.457Z,4.72
2023-06-19T11:30:45.424Z,4.10
2023-06-19T11:33:57.403Z,4.28
2023-06-19T11:37:00.716Z,4.50
2023-06-19T11:40:22.142Z,6.28
2023-06-19T11:46:31.889Z,5.28
2023-06-19T11:49:37.847Z,5.07
2023-06-19T11:52:40.972Z,5.07
2023-06-19T11:55:44.881Z,4.85
2023-06-19T11:58:47.348Z,5.00
2023-06-19T12:01:50.029Z,4.53
2023-06-19T12:04:53.015Z,5.40
2023-06-19T12:07:55.473Z,5.50
2023-06-19T12:10:58.152Z,5.45
2023-06-19T12:14:01.469Z,4.80
2023-06-19T12:17:04.685Z,4.47
2023-06-19T12:20:08.890Z,5.15
2023-06-19T12:23:11.767Z,4.15
2023-06-19T12:26:14.615Z,5.20
2023-06-19T12:29:17.461Z,4.30
2023-06-19T12:35:24.171Z,4.95
2023-06-19T12:38:27.575Z,5.18
2023-06-19T12:41:30.332Z,4.43
2023-06-19T12:44:32.847Z,4.50
2023-06-19T12:47:35.651Z,4.75
2023-06-19T12:50:38.264Z,4.80
2023-06-19T12:53:40.928Z,4.97
2023-06-19T12:59:45.772Z,4.62
2023-06-19T13:02:48.289Z,5.97
2023-06-19T13:05:51.300Z,5.50
2023-06-19T13:08:53.686Z,5.25
2023-06-19T13:11:56.557Z,5.55
2023-06-19T13:14:58.929Z,4.85
2023-06-19T13:18:01.645Z,5.10
2023-06-19T13:27:09.361Z,4.47
2023-06-19T13:30:12.641Z,4.28
2023-06-19T13:33:15.686Z,6.28
2023-06-19T13:36:20.304Z,5.60
2023-06-19T13:39:22.878Z,4.97
2023-06-19T13:42:25.609Z,5.35
2023-06-19T13:48:30.605Z,5.72
2023-06-19T13:54:37.252Z,5.05
2023-06-19T13:57:41.301Z,5.65
2023-06-19T14:00:44.043Z,5.97
2023-06-19T14:03:46.742Z,5.82
2023-06-19T14:09:54.447Z,4.97
2023-06-19T14:12:56.793Z,5.85
2023-06-19T14:15:59.477Z,5.40
2023-06-19T14:22:04.487Z,6.00
2023-06-19T14:28:09.711Z,4.90
2023-06-19T14:34:14.817Z,4.47
2023-06-19T14:37:17.937Z,5.75
2023-06-19T14:40:20.542Z,5.43
2023-06-19T14:43:22.928Z,5.68
2023-06-19T14:46:38.134Z,5.15
2023-06-19T14:49:41.888Z,5.62
2023-06-19T14:52:44.635Z,6.10
2023-06-19T14:58:50.686Z,5.93
2023-06-19T15:05:05.754Z,5.60
2023-06-19T15:08:11.127Z,5.45
2023-06-19T15:11:14.238Z,4.97
2023-06-19T15:14:18.334Z,5.62
2023-06-19T15:17:21.158Z,5.30
2023-06-19T15:20:24.026Z,5.60
2023-06-19T15:23:27.033Z,5.75
2023-06-19T15:26:29.805Z,5.47
2023-06-19T15:29:32.513Z,5.40
2023-06-19T15:32:35.500Z,5.93
2023-06-19T15:35:38.444Z,5.68
2023-06-19T15:38:41.087Z,5.57
2023-06-19T15:41:46.514Z,5.55
2023-06-19T15:44:49.202Z,5.00
2023-06-19T15:47:52.035Z,5.03
2023-06-19T15:50:54.432Z,5.30
2023-06-19T15:53:57.041Z,5.62
2023-06-19T16:03:05.222Z,4.80
2023-06-19T16:06:08.860Z,5.47
2023-06-19T16:09:11.462Z,6.18
2023-06-19T16:12:14.404Z,5.30
2023-06-19T16:15:18.884Z,5.57
2023-06-19T16:18:21.682Z,5.60
2023-06-19T16:21:24.231Z,5.00
2023-06-19T16:24:27.004Z,5.20
2023-06-19T16:27:29.479Z,4.65
2023-06-19T16:30:32.247Z,4.85
2023-06-19T16:36:37.766Z,5.97
2023-06-19T16:39:40.181Z,4.37
2023-06-19T16:42:42.923Z,5.72
2023-06-19T16:48:47.707Z,4.78
2023-06-19T16:51:50.305Z,5.18
2023-06-19T16:54:53.131Z,5.32
2023-06-19T16:57:55.633Z,5.12
2023-06-19T17:00:58.458Z,4.95
2023-06-19T17:04:01.000Z,5.47
2023-06-19T17:07:03.901Z,5.18
2023-06-19T17:10:06.813Z,5.50
2023-06-19T17:13:09.632Z,5.80
2023-06-19T17:19:14.456Z,4.87
2023-06-19T17:22:16.797Z,5.55
2023-06-19T17:28:21.591Z,5.30
2023-06-19T17:31:24.245Z,5.75
2023-06-19T17:37:29.285Z,4.82
2023-06-19T17:40:31.737Z,4.95
2023-06-19T17:43:34.458Z,4.60
2023-06-19T17:49:42.823Z,5.28
2023-06-19T17:52:45.192Z,5.68
2023-06-19T17:55:47.946Z,5.62
2023-06-19T18:01:52.950Z,5.43
2023-06-19T18:07:57.876Z,5.83
2023-06-19T18:11:00.547Z,5.53
2023-06-19T18:14:02.953Z,6.43
2023-06-19T18:17:05.783Z,6.37
2023-06-19T18:23:11.207Z,6.70
2023-06-19T18:26:13.602Z,5.78
2023-06-19T18:35:21.817Z,5.85
2023-06-19T18:38:24.228Z,6.18
2023-06-19T18:41:27.026Z,6.57
2023-06-19T18:44:30.791Z,5.65
2023-06-19T18:47:33.643Z,5.50
2023-06-19T18:50:37.172Z,6.28
2023-06-19T18:53:39.956Z,6.20
2023-06-19T18:56:42.843Z,5.53
2023-06-19T18:59:45.593Z,6.00
2023-06-19T19:02:48.213Z,5.62
2023-06-19T19:05:51.076Z,6.43
2023-06-19T19:08:57.237Z,6.00
2023-06-19T19:12:00.102Z,6.85
2023-06-19T19:15:02.634Z,5.87
2023-06-19T19:18:05.690Z,6.87
2023-06-19T19:21:08.129Z,7.40
2023-06-19T19:27:13.129Z,7.43
2023-06-19T19:30:15.921Z,6.22
2023-06-19T19:33:18.443Z,6.85
2023-06-19T19:36:21.406Z,6.82
2023-06-19T19:39:23.896Z,7.25
2023-06-19T19:45:30.032Z,6.95
2023-06-19T19:51:35.086Z,7.10
2023-06-19T19:54:37.762Z,8.00
2023-06-19T19:57:40.628Z,6.65
2023-06-19T20:00:48.509Z,6.53
2023-06-19T20:03:51.200Z,7.95
2023-06-19T20:06:53.872Z,6.70
2023-06-19T20:13:00.799Z,7.20
2023-06-19T20:19:05.816Z,5.85
2023-06-19T20:25:10.731Z,6.90
2023-06-19T20:28:13.717Z,8.27
2023-06-19T20:31:17.301Z,7.10
2023-06-19T20:34:19.971Z,7.45
2023-06-19T20:37:22.358Z,7.97
2023-06-19T20:40:26.521Z,7.00
2023-06-19T20:43:29.214Z,8.00
2023-06-19T20:46:31.916Z,7.32
2023-06-19T20:49:34.285Z,8.38
2023-06-19T20:52:36.996Z,7.15
2023-06-19T20:55:39.408Z,8.20
2023-06-19T20:58:45.173Z,6.85
2023-06-19T21:01:47.584Z,6.55
2023-06-19T21:04:50.250Z,7.32
2023-06-19T21:07:53.016Z,7.55
2023-06-19T21:10:55.725Z,7.70
2023-06-19T21:13:58.122Z,7.43
2023-06-19T21:17:00.924Z,7.68
2023-06-19T21:20:10.265Z,7.30
2023-06-19T21:23:13.114Z,6.93
2023-06-19T21:26:16.061Z,6.65
2023-06-19T21:29:18.753Z,7.05
2023-06-19T21:32:21.304Z,7.72
2023-06-19T21:38:27.367Z,6.43
2023-06-19T21:41:29.985Z,5.72
2023-06-19T21:44:32.365Z,6.22
2023-06-19T21:47:35.141Z,6.28
2023-06-19T21:50:37.649Z,6.55
2023-06-19T21:53:40.403Z,5.75
2023-06-19T21:56:44.072Z,5.65
2023-06-19T21:59:46.927Z,6.50
2023-06-19T22:02:49.710Z,5.20
2023-06-19T22:05:52.439Z,6.15
2023-06-19T22:09:01.138Z,6.05
2023-06-19T22:12:04.108Z,5.75
2023-06-19T22:15:07.028Z,5.97
2023-06-19T22:18:09.946Z,5.68
2023-06-19T22:21:12.361Z,6.90
2023-06-19T22:24:15.107Z,7.53
2023-06-19T22:27:17.965Z,5.82
2023-06-19T22:30:21.094Z,5.93
2023-06-19T22:33:23.491Z,5.78
2023-06-19T22:36:26.381Z,7.35
2023-06-19T22:39:29.450Z,6.55
2023-06-19T22:42:32.201Z,6.22
2023-06-19T22:45:34.603Z,6.30
2023-06-19T22:48:37.362Z,5.97
2023-06-19T22:51:39.724Z,6.50
2023-06-19T22:54:42.409Z,6.10
2023-06-19T22:57:44.857Z,6.68
2023-06-19T23:00:47.734Z,5.72
2023-06-19T23:03:50.233Z,4.80
2023-06-19T23:06:53.327Z,4.65
2023-06-19T23:12:58.190Z,5.65
2023-06-19T23:16:00.560Z,5.75
2023-06-19T23:19:03.839Z,5.85
2023-06-19T23:25:09.706Z,5.12
2023-06-19T23:28:12.348Z,5.20
2023-06-19T23:31:14.990Z,5.85
2023-06-19T23:34:17.545Z,5.95
2023-06-19T23:37:20.298Z,5.65
2023-06-19T23:40:22.864Z,5.10
2023-06-19T23:43:25.528Z,5.70
2023-06-19T23:46:27.993Z,6.80
2023-06-19T23:49:30.636Z,6.12
2023-06-19T23:52:42.762Z,5.70
2023-06-19T23:55:46.844Z,5.97
2023-06-19T23:58:49.157Z,6.85
